createdAt,value
2023-10-30T00:05:57.717Z,12
2023-10-30T00:14:13.544Z,11.9
2023-10-30T00:22:29.441Z,11.9
2023-10-30T00:39:01.197Z,11.8
2023-10-30T00:47:17.069Z,11.8
2023-10-30T00:55:32.927Z,11.8
2023-10-30T01:03:49.076Z,12.1
2023-10-30T01:12:04.702Z,11.9
2023-10-30T01:20:20.529Z,11.8
2023-10-30T01:28:36.426Z,11.9
2023-10-30T01:36:52.323Z,11.8
2023-10-30T01:45:08.173Z,11.8
2023-10-30T01:53:24.004Z,11.8
2023-10-30T02:01:39.922Z,11.8
2023-10-30T02:09:55.779Z,11.8
2023-10-30T02:18:11.628Z,11.9
2023-10-30T02:26:27.493Z,11.8
2023-10-30T02:34:43.346Z,11.7
2023-10-30T02:42:59.233Z,11.5
2023-10-30T02:51:15.033Z,11.5
2023-10-30T02:59:30.895Z,11.4
2023-10-30T03:07:46.730Z,11.2
2023-10-30T03:16:02.614Z,11.1
2023-10-30T03:24:18.477Z,11
2023-10-30T03:32:34.245Z,10.9
2023-10-30T03:40:50.086Z,10.9
2023-10-30T03:49:05.945Z,11
2023-10-30T03:57:21.834Z,10.9
2023-10-30T04:05:37.568Z,10.9
2023-10-30T04:13:53.422Z,10.8
2023-10-30T04:22:09.286Z,10.7
2023-10-30T04:30:25.148Z,10.7
2023-10-30T04:38:40.879Z,10.6
2023-10-30T04:46:56.743Z,10.8
2023-10-30T04:55:12.601Z,10.8
2023-10-30T05:03:28.345Z,10.7
2023-10-30T05:11:44.160Z,10.7
2023-10-30T05:19:59.985Z,10.6
2023-10-30T05:28:15.855Z,10.6
2023-10-30T05:36:31.577Z,10.5
2023-10-30T05:53:03.210Z,10.4
2023-10-30T06:01:19.032Z,10.4
2023-10-30T06:09:34.888Z,10.4
2023-10-30T06:17:50.640Z,10.5
2023-10-30T06:26:06.452Z,10.4
2023-10-30T06:34:22.311Z,10.4
2023-10-30T06:42:38.142Z,10.4
2023-10-30T06:50:53.884Z,10.6
2023-10-30T06:59:10.605Z,11
2023-10-30T07:07:25.534Z,11.3
2023-10-30T07:15:41.379Z,11.5
2023-10-30T07:23:57.204Z,11.7
2023-10-30T07:32:13.069Z,11.8
2023-10-30T07:40:28.955Z,12
2023-10-30T07:48:44.820Z,12.2
2023-10-30T07:57:00.689Z,12.4
2023-10-30T08:05:16.580Z,12.7
2023-10-30T08:13:32.490Z,12.9
2023-10-30T08:21:48.430Z,13.1
2023-10-30T08:38:22.778Z,13.6
2023-10-30T08:54:52.130Z,14
2023-10-30T09:11:24.014Z,14.4
2023-10-30T10:09:15.835Z,15.3
2023-10-30T10:25:47.791Z,14.3
2023-10-30T10:34:03.821Z,13.5
2023-10-30T10:42:19.761Z,13.8
2023-10-30T10:50:35.693Z,13.7
2023-10-30T11:07:07.501Z,13.6
2023-10-30T11:23:39.378Z,12.9
2023-10-30T11:31:55.360Z,12.8
2023-10-30T11:40:11.236Z,13.2
2023-10-30T12:21:30.857Z,13.9
2023-10-30T13:03:08.026Z,13.6
2023-10-30T13:27:47.053Z,13
2023-10-30T13:44:10.111Z,12.7
2023-10-30T14:00:41.974Z,12.4
2023-10-30T14:08:57.800Z,12.3
2023-10-30T14:17:13.624Z,12.1
2023-10-30T14:33:45.371Z,11.7
2023-10-30T14:42:01.215Z,11.6
2023-10-30T14:50:17.101Z,11.5
2023-10-30T14:58:32.972Z,11.4
2023-10-30T15:06:48.827Z,11.6
2023-10-30T15:15:04.700Z,11.6
2023-10-30T15:23:20.541Z,11.6
2023-10-30T15:31:36.414Z,11.7
2023-10-30T15:48:08.175Z,11.7
2023-10-30T16:04:43.532Z,11.6
2023-10-30T16:12:55.759Z,11.6
2023-10-30T16:37:43.381Z,11.6
2023-10-30T16:45:59.315Z,11.5
2023-10-30T16:54:15.129Z,11.5
2023-10-30T17:02:31.041Z,11.4
2023-10-30T17:27:18.614Z,11.2
2023-10-30T17:43:50.340Z,11
2023-10-30T17:52:06.178Z,10.9
2023-10-30T18:00:22.043Z,10.8
2023-10-30T18:08:37.869Z,10.8
2023-10-30T18:25:09.576Z,10.6
2023-10-30T18:33:25.442Z,10.6
2023-10-30T18:41:41.228Z,10.6
2023-10-30T18:58:12.905Z,10.7
2023-10-30T19:06:28.749Z,10.8
2023-10-30T19:23:00.478Z,10.9
2023-10-30T19:47:48.021Z,10.9
2023-10-30T20:04:19.705Z,11.1
2023-10-30T20:12:35.564Z,11.2
2023-10-30T20:20:51.423Z,11.2
2023-10-30T20:37:32.050Z,11
2023-10-30T20:54:03.544Z,10.9
2023-10-30T21:02:10.746Z,10.9
2023-10-30T21:35:14.073Z,10.8
2023-10-30T21:43:29.927Z,10.8
2023-10-30T22:16:33.319Z,11.3
2023-10-30T22:24:49.202Z,11.2
2023-10-30T22:33:05.024Z,11.1
2023-10-30T22:41:20.876Z,11.2
2023-10-30T22:57:52.566Z,11.2
2023-10-30T23:06:08.425Z,11.2
2023-10-30T23:14:24.284Z,11.2
2023-10-30T23:30:56.062Z,10.9
2023-10-30T23:39:11.867Z,10.9
2023-10-30T23:55:43.566Z,10.6
